X  Κλείσε Στοιχεία αεροπορικών μετεωρολογικών δεδομένων METAR     LGRX Patras Araxos Agamemnon Airport
Θερμοκρασία
28°C Θερμοκρασία
20°C Σημείο δρόσου
62% Υγρασία



Άνεμος
5 KM/H
3 MPH
1 M/S
3 KTS



Άπνοια
Β
Τρέχουσες Συνθήκες

Μερικώς Νεφελώδης Μερικώς Νεφελώδης
Πίεση 1009.92 (hPa) - 29.82 (inHg)
Ορατότητα 6.2 (μίλια) - 10 (km)
Aεροδρόμιο
Κωδικός Αεροδρομίου LGRX

Τοποθεσία: Patras Araxos Agamemnon Airport
Απόσταση: 108 (km)

Metar:
LGRX 121720Z VRB03KT 9999 FEW025 SCT080 28/20 Q1010

ώρα: 12-08-2022 20:20 EEST